createdAt,value
2022-09-12T00:01:19.640Z,101703.56
2022-09-12T00:03:46.743Z,101695.59
2022-09-12T00:06:22.396Z,101705.38
2022-09-12T00:08:49.511Z,101704.47
2022-09-12T00:11:15.950Z,101703.63
2022-09-12T00:13:42.847Z,101694.78
2022-09-12T00:16:22.475Z,101694.81
2022-09-12T00:18:49.346Z,101697.47
2022-09-12T00:21:17.820Z,101701.03
2022-09-12T00:23:45.097Z,101695.72
2022-09-12T00:26:15.423Z,101688.66
2022-09-12T00:28:42.173Z,101680.75
2022-09-12T00:31:11.375Z,101689.59
2022-09-12T00:33:38.238Z,101683.41
2022-09-12T00:36:07.766Z,101679.88
2022-09-12T00:38:38.303Z,101678.13
2022-09-12T00:41:05.998Z,101675.50
2022-09-12T00:43:35.803Z,101676.41
2022-09-12T00:46:08.305Z,101671.09
2022-09-12T00:48:49.373Z,101675.53
2022-09-12T00:51:17.107Z,101672.03
2022-09-12T00:53:46.294Z,101671.19
2022-09-12T00:56:17.729Z,101672.09
2022-09-12T00:58:53.608Z,101676.50
2022-09-12T01:01:20.114Z,101669.44
2022-09-12T01:03:47.386Z,101669.44
2022-09-12T01:06:28.285Z,101661.50
2022-09-12T01:08:55.390Z,101666.81
2022-09-12T01:11:22.520Z,101663.25
2022-09-12T01:13:50.511Z,101666.78
2022-09-12T01:16:17.037Z,101663.25
2022-09-12T01:19:05.744Z,101655.28
2022-09-12T01:21:59.823Z,101661.47
2022-09-12T01:25:18.930Z,101660.56
2022-09-12T01:28:03.360Z,101650.84
2022-09-12T01:30:32.684Z,101653.50
2022-09-12T01:33:33.610Z,101646.41
2022-09-12T01:36:21.983Z,101645.53
2022-09-12T01:38:53.107Z,101642.88
2022-09-12T01:41:27.991Z,101639.34
2022-09-12T01:44:10.125Z,101638.44
2022-09-12T01:46:53.765Z,101634.00
2022-09-12T01:49:27.960Z,101630.47
2022-09-12T01:52:09.208Z,101633.13
2022-09-12T01:54:45.327Z,101624.28
2022-09-12T01:57:28.458Z,101620.75
2022-09-12T02:00:01.345Z,101618.09
2022-09-12T02:02:43.802Z,101619.00
2022-09-12T02:05:27.993Z,101610.16
2022-09-12T02:08:10.464Z,101612.84
2022-09-12T02:10:55.350Z,101608.41
2022-09-12T02:13:32.059Z,101612.84
2022-09-12T02:16:06.986Z,101612.88
2022-09-12T02:18:36.514Z,101607.56
2022-09-12T02:21:05.831Z,101606.69
2022-09-12T02:23:34.651Z,101603.16
2022-09-12T02:26:11.250Z,101604.03
2022-09-12T02:28:42.520Z,101606.69
2022-09-12T02:31:36.905Z,101605.81
2022-09-12T02:34:10.057Z,101604.06
2022-09-12T02:36:55.478Z,101601.41
2022-09-12T02:39:21.800Z,101601.41
2022-09-12T02:41:57.202Z,101594.34
2022-09-12T02:44:25.433Z,101595.25
2022-09-12T02:46:56.611Z,101589.94
2022-09-12T02:49:23.976Z,101589.06
2022-09-12T02:51:50.990Z,101589.06
2022-09-12T02:54:19.084Z,101588.16
2022-09-12T02:56:46.036Z,101581.09
2022-09-12T02:59:17.807Z,101582.84
2022-09-12T03:01:50.057Z,101590.81
2022-09-12T03:04:30.126Z,101575.81
2022-09-12T03:06:56.363Z,101579.38
2022-09-12T03:09:36.486Z,101577.59
2022-09-12T03:12:11.904Z,101567.94
2022-09-12T03:15:01.424Z,101580.28
2022-09-12T03:17:42.209Z,101574.06
2022-09-12T03:20:40.814Z,101580.25
2022-09-12T03:23:19.044Z,101574.06
2022-09-12T03:25:54.406Z,101571.44
2022-09-12T03:28:22.566Z,101573.22
2022-09-12T03:30:51.455Z,101571.47
2022-09-12T03:33:21.146Z,101567.06
2022-09-12T03:35:51.467Z,101567.97
2022-09-12T03:38:18.734Z,101562.66
2022-09-12T03:40:50.297Z,101560.88
2022-09-12T03:43:19.393Z,101555.59
2022-09-12T03:45:50.635Z,101558.25
2022-09-12T03:48:17.010Z,101558.25
2022-09-12T03:50:43.383Z,101554.72
2022-09-12T03:53:12.090Z,101553.84
2022-09-12T03:55:41.595Z,101555.59
2022-09-12T03:58:07.938Z,101548.56
2022-09-12T04:00:34.311Z,101548.56
2022-09-12T04:03:04.810Z,101549.47
2022-09-12T04:05:31.245Z,101550.34
2022-09-12T04:07:57.592Z,101543.25
2022-09-12T04:10:23.938Z,101552.97
2022-09-12T04:12:50.325Z,101546.78
2022-09-12T04:15:19.704Z,101542.34
2022-09-12T04:17:46.044Z,101547.63
2022-09-12T04:20:12.398Z,101545.84
2022-09-12T04:22:38.936Z,101532.63
2022-09-12T04:25:06.066Z,101535.28
2022-09-12T04:27:32.581Z,101530.03
2022-09-12T04:30:00.257Z,101546.81
2022-09-12T04:32:26.706Z,101546.81
2022-09-12T04:34:53.054Z,101549.47
2022-09-12T04:37:23.547Z,101549.47
2022-09-12T04:39:50.686Z,101552.09
2022-09-12T04:42:17.583Z,101560.03
2022-09-12T04:44:43.943Z,101549.41
2022-09-12T04:47:12.923Z,101548.50
2022-09-12T04:49:39.233Z,101556.47
2022-09-12T04:52:05.614Z,101547.63
2022-09-12T04:54:32.536Z,101546.72
2022-09-12T04:56:59.502Z,101543.16
2022-09-12T04:59:26.592Z,101548.47
2022-09-12T05:01:53.240Z,101543.19
2022-09-12T05:04:19.664Z,101536.97
2022-09-12T05:06:47.383Z,101529.91
2022-09-12T05:09:19.486Z,101537.00
2022-09-12T05:12:03.122Z,101533.47
2022-09-12T05:14:32.365Z,101535.25
2022-09-12T05:17:01.178Z,101534.38
2022-09-12T05:19:28.602Z,101540.53
2022-09-12T05:21:54.958Z,101537.03
2022-09-12T05:24:21.330Z,101537.00
2022-09-12T05:26:47.692Z,101531.72
2022-09-12T05:29:14.519Z,101540.53
2022-09-12T05:31:41.455Z,101536.13
2022-09-12T05:34:09.032Z,101539.66
2022-09-12T05:36:37.415Z,101534.31
2022-09-12T05:39:04.570Z,101533.44
2022-09-12T05:41:33.463Z,101528.13
2022-09-12T05:44:02.366Z,101522.81
2022-09-12T05:46:34.660Z,101512.25
2022-09-12T05:49:07.997Z,101532.63
2022-09-12T05:51:37.994Z,101537.03
2022-09-12T05:54:06.216Z,101522.00
2022-09-12T05:56:38.773Z,101513.16
2022-09-12T05:59:12.016Z,101519.31
2022-09-12T06:01:38.631Z,101518.38
2022-09-12T06:04:06.948Z,101518.41
2022-09-12T06:06:37.472Z,101530.72
2022-09-12T06:09:05.581Z,101534.28
2022-09-12T06:11:33.700Z,101534.28
2022-09-12T06:14:02.368Z,101532.47
2022-09-12T06:16:31.390Z,101535.97
2022-09-12T06:19:00.544Z,101536.84
2022-09-12T06:21:31.185Z,101535.97
2022-09-12T06:23:58.815Z,101533.28
2022-09-12T06:26:26.167Z,101527.94
2022-09-12T06:28:54.927Z,101536.69
2022-09-12T06:31:25.467Z,101534.53
2022-09-12T06:33:53.680Z,101522.63
2022-09-12T06:36:26.052Z,101517.13
2022-09-12T06:39:04.247Z,101517.19
2022-09-12T06:41:31.697Z,101516.41
2022-09-12T06:43:59.810Z,101517.22
2022-09-12T06:46:27.191Z,101508.34
2022-09-12T06:48:55.529Z,101516.16
2022-09-12T06:51:21.926Z,101519.66
2022-09-12T06:53:49.041Z,101509.03
2022-09-12T06:56:21.316Z,101524.03
2022-09-12T06:58:49.377Z,101520.44
2022-09-12T07:01:18.325Z,101522.03
2022-09-12T07:03:49.077Z,101511.41
2022-09-12T07:06:17.287Z,101516.63
2022-09-12T07:08:43.905Z,101519.19
2022-09-12T07:11:17.698Z,101517.28
2022-09-12T07:13:47.062Z,101513.56
2022-09-12T07:16:19.218Z,101517.47
2022-09-12T07:18:54.798Z,101517.25
2022-09-12T07:21:21.743Z,101511.22
2022-09-12T07:23:48.758Z,101509.69
2022-09-12T07:26:17.767Z,101504.34
2022-09-12T07:28:44.544Z,101497.59
2022-09-12T07:31:16.513Z,101499.59
2022-09-12T07:33:44.351Z,101503.59
2022-09-12T07:36:13.622Z,101503.44
2022-09-12T07:38:41.065Z,101508.31
2022-09-12T07:41:22.804Z,101501.94
2022-09-12T07:43:53.313Z,101506.31
2022-09-12T07:46:20.345Z,101501.94
2022-09-12T07:48:51.518Z,101500.03
2022-09-12T07:51:19.031Z,101496.31
2022-09-12T07:53:45.757Z,101502.50
2022-09-12T07:56:13.459Z,101499.69
2022-09-12T07:58:41.851Z,101503.88
2022-09-12T08:01:16.804Z,101503.91
2022-09-12T08:03:45.183Z,101505.41
2022-09-12T08:06:20.193Z,101503.00
2022-09-12T08:08:47.866Z,101502.78
2022-09-12T08:11:17.106Z,101508.19
2022-09-12T08:13:44.183Z,101500.72
2022-09-12T08:16:15.219Z,101502.22
2022-09-12T08:18:42.085Z,101501.28
2022-09-12T08:21:12.954Z,101500.91
2022-09-12T08:23:39.437Z,101505.09
2022-09-12T08:26:06.596Z,101505.47
2022-09-12T08:28:35.023Z,101512.78
2022-09-12T08:31:09.482Z,101511.72
2022-09-12T08:33:40.509Z,101503.31
2022-09-12T08:36:08.558Z,101505.25
2022-09-12T08:38:36.626Z,101508.22
2022-09-12T08:41:14.398Z,101514.38
2022-09-12T08:43:57.498Z,101513.13
2022-09-12T08:46:53.221Z,101499.97
2022-09-12T08:49:29.556Z,101500.47
2022-09-12T08:51:59.377Z,101491.50
2022-09-12T08:54:29.619Z,101496.00
2022-09-12T08:57:03.067Z,101493.28
2022-09-12T08:59:41.573Z,101497.00
2022-09-12T09:02:48.847Z,101485.97
2022-09-12T09:08:13.578Z,101486.50
2022-09-12T09:11:04.290Z,101487.03
2022-09-12T09:14:05.452Z,101480.53
2022-09-12T09:16:42.691Z,101474.50
2022-09-12T09:19:37.562Z,101475.31
2022-09-12T09:22:13.681Z,101474.91
2022-09-12T09:24:46.572Z,101476.78
2022-09-12T09:27:40.769Z,101481.59
2022-09-12T09:30:19.684Z,101484.13
2022-09-12T09:32:53.542Z,101481.63
2022-09-12T09:35:36.681Z,101481.72
2022-09-12T09:38:21.697Z,101482.44
2022-09-12T09:41:18.934Z,101472.25
2022-09-12T09:43:46.456Z,101475.94
2022-09-12T09:46:14.039Z,101477.22
2022-09-12T09:48:45.701Z,101461.66
2022-09-12T09:51:15.539Z,101462.84
2022-09-12T09:53:50.304Z,101458.66
2022-09-12T09:56:37.033Z,101466.75
2022-09-12T09:59:16.976Z,101455.34
2022-09-12T10:01:57.600Z,101458.81
2022-09-12T10:04:41.095Z,101453.59
2022-09-12T10:07:19.200Z,101454.38
2022-09-12T10:10:03.641Z,101446.34
2022-09-12T10:12:30.000Z,101444.72
2022-09-12T10:15:00.519Z,101443.16
2022-09-12T10:17:41.395Z,101437.16
2022-09-12T10:20:39.474Z,101427.00
2022-09-12T10:23:35.991Z,101429.63
2022-09-12T10:26:08.387Z,101426.13
2022-09-12T10:28:46.972Z,101424.59
2022-09-12T10:31:28.793Z,101424.19
2022-09-12T10:34:01.465Z,101419.56
2022-09-12T10:36:39.571Z,101421.28
2022-09-12T10:39:06.957Z,101408.69
2022-09-12T10:41:39.611Z,101416.72
2022-09-12T10:44:14.572Z,101423.00
2022-09-12T10:46:41.317Z,101402.53
2022-09-12T10:49:38.183Z,101396.91
2022-09-12T10:52:24.867Z,101400.56
2022-09-12T10:54:52.247Z,101397.97
2022-09-12T10:57:30.962Z,101400.50
2022-09-12T11:00:14.968Z,101398.38
2022-09-12T11:02:51.303Z,101405.16
2022-09-12T11:05:37.318Z,101402.97
2022-09-12T11:08:11.977Z,101408.13
2022-09-12T11:10:42.542Z,101407.75
2022-09-12T11:13:29.919Z,101409.59
2022-09-12T11:16:15.145Z,101401.00
2022-09-12T11:18:47.954Z,101405.41
2022-09-12T11:21:40.018Z,101396.84
2022-09-12T11:24:15.332Z,101395.91
2022-09-12T11:27:07.812Z,101390.50
2022-09-12T11:30:01.791Z,101388.50
2022-09-12T11:32:46.577Z,101391.03
2022-09-12T11:35:17.612Z,101386.38
2022-09-12T11:38:12.996Z,101392.59
2022-09-12T11:40:55.712Z,101389.09
2022-09-12T11:43:33.158Z,101387.56
2022-09-12T11:46:10.940Z,101373.72
2022-09-12T11:49:12.229Z,101374.28
2022-09-12T11:51:42.878Z,101372.38
2022-09-12T11:54:25.627Z,101368.50
2022-09-12T11:57:03.091Z,101357.91
2022-09-12T11:59:44.767Z,101372.19
2022-09-12T12:02:19.794Z,101367.59
2022-09-12T12:05:16.335Z,101382.72
2022-09-12T12:07:52.785Z,101363.19
2022-09-12T12:10:29.600Z,101371.44
2022-09-12T12:12:58.890Z,101363.44
2022-09-12T12:15:26.576Z,101371.47
2022-09-12T12:18:17.895Z,101365.09
2022-09-12T12:20:44.413Z,101364.66
2022-09-12T12:23:22.827Z,101366.38
2022-09-12T12:26:34.320Z,101360.72
2022-09-12T12:29:01.288Z,101360.16
2022-09-12T12:31:28.006Z,101350.84
2022-09-12T12:34:00.441Z,101338.22
2022-09-12T12:36:36.262Z,101344.75
2022-09-12T12:39:31.592Z,101346.63
2022-09-12T12:42:02.255Z,101338.22
2022-09-12T12:44:55.008Z,101328.28
2022-09-12T12:47:44.397Z,101325.97
2022-09-12T12:50:10.838Z,101335.44
2022-09-12T12:52:51.890Z,101322.09
2022-09-12T12:55:29.298Z,101328.13
2022-09-12T12:58:02.145Z,101326.94
2022-09-12T13:00:42.849Z,101313.41
2022-09-12T13:03:45.273Z,101315.72
2022-09-12T13:06:44.791Z,101312.44
2022-09-12T13:09:40.226Z,101305.25
2022-09-12T13:12:12.480Z,101299.22
2022-09-12T13:14:54.890Z,101300.00
2022-09-12T13:17:29.562Z,101286.13
2022-09-12T13:20:29.598Z,101293.31
2022-09-12T13:22:57.263Z,101296.47
2022-09-12T13:25:35.609Z,101273.78
2022-09-12T13:28:07.649Z,101271.66
2022-09-12T13:30:37.775Z,101285.66
2022-09-12T13:33:20.557Z,101287.06
2022-09-12T13:36:18.729Z,101281.72
2022-09-12T13:39:16.071Z,101297.59
2022-09-12T13:42:11.438Z,101281.91
2022-09-12T13:45:03.175Z,101266.56
2022-09-12T13:47:32.784Z,101274.47
2022-09-12T13:50:02.682Z,101274.13
2022-09-12T13:52:33.181Z,101271.50
2022-09-12T13:55:04.446Z,101265.50
2022-09-12T13:57:41.342Z,101275.88
2022-09-12T14:00:20.369Z,101275.19
2022-09-12T14:02:50.247Z,101263.38
2022-09-12T14:05:26.028Z,101253.31
2022-09-12T14:07:55.579Z,101232.75
2022-09-12T14:10:28.579Z,101246.00
2022-09-12T14:13:05.550Z,101253.63
2022-09-12T14:15:36.032Z,101238.19
2022-09-12T14:18:05.757Z,101230.75
2022-09-12T14:20:37.139Z,101224.84
2022-09-12T14:23:29.963Z,101222.34
2022-09-12T14:25:59.909Z,101221.09
2022-09-12T14:28:30.569Z,101218.66
2022-09-12T14:31:01.971Z,101207.97
2022-09-12T14:33:39.110Z,101207.75
2022-09-12T14:36:13.009Z,101210.84
2022-09-12T14:38:48.737Z,101212.09
2022-09-12T14:41:24.069Z,101214.41
2022-09-12T14:43:55.334Z,101213.44
2022-09-12T14:46:28.380Z,101214.59
2022-09-12T14:49:01.939Z,101212.66
2022-09-12T14:51:38.211Z,101205.81
2022-09-12T14:54:04.848Z,101195.25
2022-09-12T14:56:40.984Z,101198.34
2022-09-12T14:59:40.849Z,101195.03
2022-09-12T15:02:22.397Z,101198.97
2022-09-12T15:05:15.071Z,101206.38
2022-09-12T15:07:56.003Z,101201.03
2022-09-12T15:10:37.678Z,101198.59
2022-09-12T15:13:09.798Z,101203.50
2022-09-12T15:15:37.676Z,101198.53
2022-09-12T15:18:06.763Z,101190.44
2022-09-12T15:20:36.469Z,101187.81
2022-09-12T15:23:03.240Z,101199.13
2022-09-12T15:25:29.660Z,101192.72
2022-09-12T15:27:56.386Z,101187.75
2022-09-12T15:30:22.769Z,101186.44
2022-09-12T15:32:49.237Z,101187.41
2022-09-12T15:35:22.480Z,101197.22
2022-09-12T15:37:49.721Z,101199.84
2022-09-12T15:40:17.335Z,101188.38
2022-09-12T15:42:43.784Z,101178.63
2022-09-12T15:45:20.252Z,101173.38
2022-09-12T15:47:49.763Z,101166.59
2022-09-12T15:50:16.325Z,101165.38
2022-09-12T15:52:42.688Z,101158.84
2022-09-12T15:55:17.826Z,101155.66
2022-09-12T15:57:47.126Z,101163.63
2022-09-12T16:00:15.031Z,101167.03
2022-09-12T16:02:45.831Z,101160.59
2022-09-12T16:05:18.997Z,101156.88
2022-09-12T16:07:45.425Z,101159.47
2022-09-12T16:10:17.447Z,101157.19
2022-09-12T16:12:44.452Z,101153.63
2022-09-12T16:15:20.484Z,101160.44
2022-09-12T16:17:47.284Z,101147.41
2022-09-12T16:20:14.229Z,101149.09
2022-09-12T16:22:41.373Z,101148.16
2022-09-12T16:25:08.893Z,101140.28
2022-09-12T16:27:36.337Z,101144.63
2022-09-12T16:30:04.793Z,101130.47
2022-09-12T16:32:31.537Z,101140.53
2022-09-12T16:34:57.983Z,101138.81
2022-09-12T16:37:25.218Z,101140.72
2022-09-12T16:39:52.345Z,101125.94
2022-09-12T16:42:19.394Z,101123.47
2022-09-12T16:44:46.993Z,101129.03
2022-09-12T16:47:19.163Z,101116.59
2022-09-12T16:49:56.770Z,101113.84
2022-09-12T16:52:23.817Z,101110.97
2022-09-12T16:54:50.330Z,101102.72
2022-09-12T16:57:16.836Z,101098.38
2022-09-12T16:59:43.530Z,101104.78
2022-09-12T17:02:21.785Z,101089.28
2022-09-12T17:04:48.995Z,101088.66
2022-09-12T17:07:15.355Z,101077.28
2022-09-12T17:09:45.051Z,101084.59
2022-09-12T17:12:14.049Z,101081.91
2022-09-12T17:14:40.574Z,101100.75
2022-09-12T17:17:07.224Z,101098.13
2022-09-12T17:19:33.653Z,101097.44
2022-09-12T17:22:00.012Z,101101.34
2022-09-12T17:24:26.694Z,101098.78
2022-09-12T17:26:53.668Z,101108.13
2022-09-12T17:29:21.019Z,101108.31
2022-09-12T17:31:48.075Z,101104.09
2022-09-12T17:34:15.149Z,101099.75
2022-09-12T17:36:57.449Z,101094.50
2022-09-12T17:39:23.854Z,101094.78
2022-09-12T17:41:51.963Z,101094.91
2022-09-12T17:44:19.204Z,101093.34
2022-09-12T17:46:45.783Z,101095.19
2022-09-12T17:49:15.111Z,101087.28
2022-09-12T17:51:41.633Z,101085.69
2022-09-12T17:54:11.898Z,101081.50
2022-09-12T17:56:39.109Z,101081.88
2022-09-12T17:59:07.496Z,101087.31
2022-09-12T18:01:52.809Z,101083.06
2022-09-12T18:04:20.063Z,101090.34
2022-09-12T18:06:48.739Z,101090.63
2022-09-12T18:09:21.222Z,101096.19
2022-09-12T18:11:52.018Z,101084.63
2022-09-12T18:14:19.384Z,101095.53
2022-09-12T18:16:46.926Z,101098.22
2022-09-12T18:19:13.885Z,101095.59
2022-09-12T18:21:42.043Z,101092.22
2022-09-12T18:24:09.978Z,101092.44
2022-09-12T18:26:38.701Z,101094.47
2022-09-12T18:29:05.101Z,101085.69
2022-09-12T18:31:31.739Z,101077.06
2022-09-12T18:34:02.553Z,101080.13
2022-09-12T18:36:30.801Z,101077.69
2022-09-12T18:38:58.772Z,101083.44
2022-09-12T18:41:28.904Z,101083.72
2022-09-12T18:44:01.279Z,101083.16
2022-09-12T18:46:30.075Z,101085.97
2022-09-12T18:48:57.921Z,101085.31
2022-09-12T18:51:31.313Z,101079.19
2022-09-12T18:54:00.087Z,101079.63
2022-09-12T18:56:32.250Z,101069.25
2022-09-12T18:59:00.400Z,101067.88
2022-09-12T19:01:32.091Z,101052.47
2022-09-12T19:04:00.771Z,101067.22
2022-09-12T19:06:29.602Z,101063.09
2022-09-12T19:09:01.694Z,101065.38
2022-09-12T19:11:30.370Z,101057.75
2022-09-12T19:13:57.065Z,101055.63
2022-09-12T19:16:26.692Z,101059.34
2022-09-12T19:18:55.596Z,101063.13
2022-09-12T19:21:28.159Z,101065.13
2022-09-12T19:24:01.322Z,101051.78
2022-09-12T19:26:27.853Z,101059.91
2022-09-12T19:28:55.370Z,101057.28
2022-09-12T19:31:23.190Z,101058.47
2022-09-12T19:33:50.506Z,101055.06
2022-09-12T19:36:43.847Z,101051.72
2022-09-12T19:39:07.269Z,101069.88
2022-09-12T19:41:34.078Z,101070.75
2022-09-12T19:44:03.148Z,101076.94
2022-09-12T19:46:29.621Z,101070.63
2022-09-12T19:48:55.989Z,101062.53
2022-09-12T19:51:23.986Z,101059.22
2022-09-12T19:53:51.210Z,101069.00
2022-09-12T19:56:17.651Z,101056.63
2022-09-12T19:58:46.063Z,101059.31
2022-09-12T20:01:15.648Z,101064.69
2022-09-12T20:03:45.134Z,101055.22
2022-09-12T20:06:14.324Z,101052.69
2022-09-12T20:08:42.281Z,101051.09
2022-09-12T20:11:09.957Z,101053.09
2022-09-12T20:13:36.366Z,101058.66
2022-09-12T20:16:11.672Z,101041.03
2022-09-12T20:18:38.463Z,101041.22
2022-09-12T20:21:12.935Z,101048.50
2022-09-12T20:23:40.755Z,101044.22
2022-09-12T20:26:08.669Z,101054.09
2022-09-12T20:28:36.530Z,101054.19
2022-09-12T20:31:05.696Z,101037.47
2022-09-12T20:33:32.224Z,101037.66
2022-09-12T20:36:07.232Z,101038.66
2022-09-12T20:38:33.859Z,101041.44
2022-09-12T20:41:04.742Z,101044.25
2022-09-12T20:43:31.342Z,101045.28
2022-09-12T20:45:57.885Z,101042.72
2022-09-12T20:48:24.758Z,101043.53
2022-09-12T20:50:51.177Z,101049.78
2022-09-12T20:53:17.565Z,101045.28
2022-09-12T20:55:53.374Z,101043.53
2022-09-12T20:58:21.168Z,101048.97
2022-09-12T21:00:48.247Z,101030.22
2022-09-12T21:03:20.578Z,101028.41
2022-09-12T21:05:47.534Z,101016.88
2022-09-12T21:08:14.804Z,101010.66
2022-09-12T21:10:43.956Z,101012.34
2022-09-12T21:13:11.393Z,101022.19
2022-09-12T21:15:39.162Z,101028.41
2022-09-12T21:18:06.556Z,101023.19
2022-09-12T21:20:33.165Z,101033.81
2022-09-12T21:23:00.315Z,101032.94
2022-09-12T21:25:30.980Z,101036.44
2022-09-12T21:27:58.248Z,101037.47
2022-09-12T21:30:24.580Z,101034.88
2022-09-12T21:32:51.742Z,101029.53
2022-09-12T21:35:18.248Z,101031.22
2022-09-12T21:37:46.911Z,101019.59
2022-09-12T21:40:13.610Z,101015.31
2022-09-12T21:42:40.024Z,101023.47
2022-09-12T21:45:06.674Z,101017.31
2022-09-12T21:47:33.077Z,101023.53
2022-09-12T21:49:59.450Z,101034.34
2022-09-12T21:52:25.987Z,101033.53
2022-09-12T21:54:52.349Z,101037.06
2022-09-12T21:57:22.163Z,101034.47
2022-09-12T21:59:48.817Z,101037.06
2022-09-12T22:02:15.819Z,101036.22
2022-09-12T22:04:44.648Z,101029.13
2022-09-12T22:07:11.250Z,101037.06
2022-09-12T22:09:41.275Z,101032.63
2022-09-12T22:12:08.660Z,101035.97
2022-09-12T22:14:35.041Z,101034.09
2022-09-12T22:17:01.855Z,101033.13
2022-09-12T22:19:30.759Z,101041.22
2022-09-12T22:22:16.339Z,101026.84
2022-09-12T22:24:43.203Z,101030.25
2022-09-12T22:27:09.822Z,101024.78
2022-09-12T22:29:37.173Z,101025.63
2022-09-12T22:32:04.010Z,101021.97
2022-09-12T22:34:30.397Z,101024.56
2022-09-12T22:36:57.431Z,101000.66
2022-09-12T22:39:23.794Z,101010.47
2022-09-12T22:41:50.828Z,101000.69
2022-09-12T22:44:17.714Z,101000.69
2022-09-12T22:46:44.099Z,101001.63
2022-09-12T22:49:19.649Z,100992.03
2022-09-12T22:51:46.063Z,100991.09
2022-09-12T22:54:14.091Z,100982.06
2022-09-12T22:56:40.644Z,100983.78
2022-09-12T23:01:35.396Z,100982.19
2022-09-12T23:04:03.415Z,100975.97
2022-09-12T23:06:29.742Z,100974.16
2022-09-12T23:08:58.942Z,100977.66
2022-09-12T23:11:26.394Z,100980.44
2022-09-12T23:13:52.708Z,100977.88
2022-09-12T23:16:26.235Z,100980.69
2022-09-12T23:18:52.681Z,100981.81
2022-09-12T23:21:21.178Z,100979.38
2022-09-12T23:23:48.400Z,100977.00
2022-09-12T23:26:17.150Z,100981.66
2022-09-12T23:28:49.799Z,100974.66
2022-09-12T23:31:17.138Z,100977.47
2022-09-12T23:33:44.222Z,100974.03
2022-09-12T23:36:14.675Z,100979.53
2022-09-12T23:38:45.936Z,100969.81
2022-09-12T23:41:13.542Z,100964.25
2022-09-12T23:43:39.955Z,100971.41
2022-09-12T23:46:07.263Z,100950.00
2022-09-12T23:48:34.172Z,100955.34
2022-09-12T23:51:02.000Z,100943.91
2022-09-12T23:53:29.461Z,100950.38
2022-09-12T23:55:55.841Z,100947.00
2022-09-12T23:58:25.666Z,100942.66
